Time,TemperatureF,DewpointF,PressureIn,WindDirection,WindDirectionDegrees,WindSpeedMPH,WindSpeedGustMPH,Humidity,HourlyPrecipIn,Conditions,Clouds,dailyrainin,SoftwareType,DateUTC
2013-07-30 00:01:00,65.0,11.9,29.99,SSE,158,0.6,1.6,13,0.00,,,0.00,WUHU216HW,2013-07-30 05:01:00,
2013-07-30 00:06:00,65.0,11.9,29.99,SSE,158,0.7,1.6,13,0.00,,,0.00,WUHU216HW,2013-07-30 05:06:00,
2013-07-30 00:11:00,65.2,12.0,29.98,SSE,158,1.0,1.6,13,0.00,,,0.00,WUHU216HW,2013-07-30 05:11:00,
2013-07-30 00:16:00,65.2,12.0,29.98,ESE,113,0.9,3.1,13,0.00,,,0.00,WUHU216HW,2013-07-30 05:16:00,
2013-07-30 00:21:00,65.0,11.9,29.98,East,90,1.1,3.1,13,0.00,,,0.00,WUHU216HW,2013-07-30 05:21:00,
2013-07-30 00:26:00,65.0,11.9,29.98,ESE,113,1.3,2.0,13,0.00,,,0.00,WUHU216HW,2013-07-30 05:26:00,
2013-07-30 00:31:00,65.0,11.9,29.98,East,97,1.9,2.5,13,0.00,,,0.00,WUHU216HW,2013-07-30 05:31:00,
2013-07-30 00:36:00,65.0,11.9,29.98,ESE,107,1.1,2.5,13,0.00,,,0.00,WUHU216HW,2013-07-30 05:36:00,
2013-07-30 00:41:00,65.0,11.9,29.98,East,90,0.7,2.2,13,0.00,,,0.00,WUHU216HW,2013-07-30 05:41:00,
2013-07-30 00:46:00,65.0,11.9,29.98,East,90,0.7,0.7,13,0.00,,,0.00,WUHU216HW,2013-07-30 05:46:00,
2013-07-30 01:00:00,65.0,11.9,29.97,East,90,0.4,0.4,13,0.00,,,0.00,WUHU216HW,2013-07-30 06:00:00,
2013-07-30 01:05:00,65.0,11.9,29.97,East,90,0.4,0.4,13,0.00,,,0.00,WUHU216HW,2013-07-30 06:05:00,
2013-07-30 02:00:00,64.8,11.7,29.97,East,90,1.1,1.1,13,0.00,,,0.00,WUHU216HW,2013-07-30 07:00:00,
2013-07-30 02:05:00,64.8,11.7,29.97,East,90,1.1,1.1,13,0.00,,,0.00,WUHU216HW,2013-07-30 07:05:00,
2013-07-30 03:00:00,64.8,11.7,29.96,ESE,113,0.9,0.9,13,0.00,,,0.00,WUHU216HW,2013-07-30 08:00:00,
2013-07-30 03:05:00,64.8,11.7,29.96,ESE,113,0.9,1.8,13,0.00,,,0.00,WUHU216HW,2013-07-30 08:05:00,
2013-07-30 03:10:00,64.8,11.7,29.97,ESE,113,0.5,1.8,13,0.01,,,0.01,WUHU216HW,2013-07-30 08:10:00,
2013-07-30 03:15:00,64.8,11.7,29.97,ESE,113,1.1,1.6,13,0.01,,,0.01,WUHU216HW,2013-07-30 08:15:00,
2013-07-30 03:20:00,64.8,11.7,29.97,ESE,113,1.1,1.6,13,0.01,,,0.01,WUHU216HW,2013-07-30 08:20:00,
2013-07-30 03:25:00,64.8,11.7,29.97,ESE,113,1.1,1.6,13,0.01,,,0.01,WUHU216HW,2013-07-30 08:25:00,
2013-07-30 03:29:00,64.8,11.7,29.97,East,90,1.3,1.3,13,0.01,,,0.01,WUHU216HW,2013-07-30 08:29:00,
2013-07-30 03:30:00,64.8,11.7,29.97,East,90,1.3,1.8,13,0.01,,,0.01,WUHU216HW,2013-07-30 08:30:00,
2013-07-30 03:35:00,64.8,11.7,29.97,East,90,1.3,1.8,13,0.01,,,0.01,WUHU216HW,2013-07-30 08:35:00,
2013-07-30 04:00:00,64.8,11.7,29.97,NE,45,1.1,1.1,13,0.01,,,0.01,WUHU216HW,2013-07-30 09:00:00,
2013-07-30 04:05:00,64.8,11.7,29.97,NE,45,1.1,1.1,13,0.01,,,0.01,WUHU216HW,2013-07-30 09:05:00,
2013-07-30 05:00:00,64.4,11.4,29.97,NE,45,1.1,1.1,13,0.00,,,0.01,WUHU216HW,2013-07-30 10:00:00,
2013-07-30 05:05:00,64.4,11.4,29.97,NE,45,1.1,1.1,13,0.00,,,0.01,WUHU216HW,2013-07-30 10:05:00,
2013-07-30 06:00:00,64.3,14.4,29.98,NNE,23,0.0,0.0,15,0.00,,,0.01,WUHU216HW,2013-07-30 11:00:00,
2013-07-30 06:05:00,64.3,14.4,29.98,NNE,23,0.0,0.0,15,0.00,,,0.01,WUHU216HW,2013-07-30 11:05:00,
2013-07-30 07:00:00,64.4,14.6,29.99,NNE,23,0.0,0.0,15,0.00,,,0.01,WUHU216HW,2013-07-30 12:00:00,
2013-07-30 07:05:00,64.4,14.6,29.99,NNE,23,0.0,0.0,15,0.00,,,0.01,WUHU216HW,2013-07-30 12:05:00,
2013-07-30 08:00:00,65.0,15.0,30.00,NNE,23,2.2,2.2,15,0.00,,,0.01,WUHU216HW,2013-07-30 13:00:00,
2013-07-30 08:05:00,65.0,15.0,30.00,NNE,23,2.2,2.2,15,0.00,,,0.01,WUHU216HW,2013-07-30 13:05:00,
2013-07-30 09:00:00,66.1,12.7,30.01,NE,45,1.3,1.3,13,0.00,,,0.01,WUHU216HW,2013-07-30 14:00:00,
2013-07-30 09:05:00,66.2,12.9,30.01,NE,45,0.8,1.8,13,0.00,,,0.01,WUHU216HW,2013-07-30 14:05:00,
2013-07-30 09:10:00,66.4,13.0,30.01,NE,45,0.2,1.8,13,0.00,,,0.01,WUHU216HW,2013-07-30 14:10:00,
2013-07-30 09:15:00,66.6,13.1,30.01,NE,41,1.9,2.5,13,0.00,,,0.01,WUHU216HW,2013-07-30 14:15:00,
2013-07-30 09:20:00,66.4,13.0,30.01,NNE,23,0.7,2.5,13,0.00,,,0.01,WUHU216HW,2013-07-30 14:20:00,
2013-07-30 09:25:00,66.6,13.1,30.01,NNE,23,1.1,2.2,13,0.00,,,0.01,WUHU216HW,2013-07-30 14:25:00,
2013-07-30 09:30:00,67.0,13.4,30.01,NNE,23,0.5,1.8,13,0.00,,,0.01,WUHU216HW,2013-07-30 14:30:00,
2013-07-30 09:35:00,67.3,13.8,30.01,North,0,1.3,1.3,13,0.00,,,0.01,WUHU216HW,2013-07-30 14:35:00,
2013-07-30 09:40:00,67.5,13.9,30.01,North,0,0.9,1.6,13,0.00,,,0.01,WUHU216HW,2013-07-30 14:40:00,
2013-07-30 09:45:00,68.0,14.3,30.01,NE,45,1.3,2.2,13,0.00,,,0.01,WUHU216HW,2013-07-30 14:45:00,
2013-07-30 09:50:00,68.0,14.3,30.01,NE,45,0.5,2.2,13,0.00,,,0.01,WUHU216HW,2013-07-30 14:50:00,
2013-07-30 09:55:00,68.4,14.6,30.01,NE,45,2.5,2.5,13,0.00,,,0.01,WUHU216HW,2013-07-30 14:55:00,
2013-07-30 10:00:00,68.4,16.2,30.01,NNW,338,0.7,2.5,14,0.00,,,0.01,WUHU216HW,2013-07-30 15:00:00,
2013-07-30 10:05:00,68.4,17.8,30.01,NE,45,1.8,2.5,15,0.00,,,0.01,WUHU216HW,2013-07-30 15:05:00,
2013-07-30 10:10:00,68.6,17.9,30.01,North,0,1.1,2.5,15,0.00,,,0.01,WUHU216HW,2013-07-30 15:10:00,
2013-07-30 10:15:00,68.9,18.3,30.01,North,0,1.3,2.5,15,0.00,,,0.01,WUHU216HW,2013-07-30 15:15:00,
2013-07-30 10:20:00,69.3,18.5,30.01,NNE,23,3.4,3.4,15,0.00,,,0.01,WUHU216HW,2013-07-30 15:20:00,
2013-07-30 10:25:00,69.5,20.3,30.01,North,0,1.3,3.4,16,0.00,,,0.01,WUHU216HW,2013-07-30 15:25:00,
2013-07-30 10:30:00,69.8,20.5,30.01,ENE,68,2.5,3.4,16,0.00,,,0.01,WUHU216HW,2013-07-30 15:30:00,
2013-07-30 10:35:00,69.8,23.8,30.01,North,11,2.2,3.6,18,0.00,,,0.01,WUHU216HW,2013-07-30 15:35:00,
2013-07-30 10:40:00,70.0,25.6,30.01,NE,45,2.5,4.0,19,0.00,,,0.01,WUHU216HW,2013-07-30 15:40:00,
2013-07-30 10:45:00,70.2,24.0,30.01,NNW,342,1.2,4.0,18,0.00,,,0.01,WUHU216HW,2013-07-30 15:45:00,
2013-07-30 10:50:00,70.4,24.2,30.00,NNE,13,1.2,3.4,18,0.00,,,0.01,WUHU216HW,2013-07-30 15:50:00,
2013-07-30 10:55:00,70.6,25.9,30.01,NE,45,1.8,2.7,19,0.00,,,0.01,WUHU216HW,2013-07-30 15:55:00,
2013-07-30 11:00:00,70.9,28.9,30.01,North,0,1.8,2.7,21,0.00,,,0.01,WUHU216HW,2013-07-30 16:00:00,
2013-07-30 11:05:00,71.1,31.1,30.01,NE,47,2.7,4.0,23,0.00,,,0.01,WUHU216HW,2013-07-30 16:05:00,
2013-07-30 11:10:00,70.9,28.9,30.01,NE,52,2.6,4.0,21,0.00,,,0.01,WUHU216HW,2013-07-30 16:10:00,
2013-07-30 11:15:00,70.9,29.9,30.01,NE,34,1.9,3.8,22,0.00,,,0.01,WUHU216HW,2013-07-30 16:15:00,
2013-07-30 11:20:00,70.9,29.9,30.01,NNE,23,2.5,3.8,22,0.00,,,0.01,WUHU216HW,2013-07-30 16:20:00,
2013-07-30 11:25:00,70.7,29.8,30.01,NNE,13,1.4,3.6,22,0.00,,,0.01,WUHU216HW,2013-07-30 16:25:00,
2013-07-30 11:30:00,70.7,28.7,30.01,NNE,28,1.8,3.6,21,0.00,,,0.01,WUHU216HW,2013-07-30 16:30:00,
2013-07-30 11:35:00,70.7,30.8,30.01,NNE,33,3.2,4.0,23,0.00,,,0.01,WUHU216HW,2013-07-30 16:35:00,
2013-07-30 11:40:00,70.9,28.9,30.01,NNW,338,1.3,4.0,21,0.00,,,0.01,WUHU216HW,2013-07-30 16:40:00,
2013-07-30 11:45:00,71.1,30.1,30.01,NE,38,2.1,3.4,22,0.00,,,0.01,WUHU216HW,2013-07-30 16:45:00,
2013-07-30 11:50:00,71.1,29.1,30.01,NNW,338,2.0,3.4,21,0.00,,,0.01,WUHU216HW,2013-07-30 16:50:00,
2013-07-30 11:55:00,71.3,31.2,30.01,WSW,248,1.8,2.9,23,0.00,,,0.01,WUHU216HW,2013-07-30 16:55:00,
2013-07-30 12:00:00,71.6,32.6,30.01,NNE,30,2.6,3.6,24,0.00,,,0.01,WUHU216HW,2013-07-30 17:00:00,
2013-07-30 12:05:00,71.6,33.6,30.01,ENE,68,4.0,4.7,25,0.00,,,0.01,WUHU216HW,2013-07-30 17:05:00,
2013-07-30 12:10:00,71.3,32.2,30.01,NE,45,3.4,4.7,24,0.00,,,0.01,WUHU216HW,2013-07-30 17:10:00,
2013-07-30 12:15:00,71.3,31.2,30.01,NE,44,2.0,4.9,23,0.00,,,0.01,WUHU216HW,2013-07-30 17:15:00,
2013-07-30 12:20:00,71.5,31.4,30.01,North,0,1.1,4.9,23,0.00,,,0.01,WUHU216HW,2013-07-30 17:20:00,
2013-07-30 12:25:00,72.2,34.0,30.01,NNE,23,1.3,2.7,25,0.00,,,0.01,WUHU216HW,2013-07-30 17:25:00,
2013-07-30 12:30:00,72.0,34.9,30.01,North,7,2.5,3.6,26,0.00,,,0.01,WUHU216HW,2013-07-30 17:30:00,
2013-07-30 12:35:00,71.6,33.6,30.01,NE,52,1.8,3.6,25,0.00,,,0.01,WUHU216HW,2013-07-30 17:35:00,
2013-07-30 12:40:00,71.5,34.5,30.01,North,0,1.8,2.5,26,0.00,,,0.01,WUHU216HW,2013-07-30 17:40:00,
2013-07-30 12:45:00,71.6,31.5,30.01,North,351,1.0,2.9,23,0.00,,,0.01,WUHU216HW,2013-07-30 17:45:00,
2013-07-30 12:50:00,72.2,34.0,30.01,ENE,68,2.7,2.9,25,0.00,,,0.01,WUHU216HW,2013-07-30 17:50:00,
2013-07-30 12:55:00,72.4,35.2,30.01,NE,54,2.1,3.6,26,0.00,,,0.01,WUHU216HW,2013-07-30 17:55:00,
2013-07-30 13:00:00,72.7,38.5,30.01,NNE,19,2.2,3.6,29,0.00,,,0.01,WUHU216HW,2013-07-30 18:00:00,
2013-07-30 13:05:00,72.9,37.7,30.01,NNW,344,1.2,4.3,28,0.00,,,0.01,WUHU216HW,2013-07-30 18:05:00,
2013-07-30 13:10:00,72.9,40.5,30.01,NE,34,2.2,4.3,31,0.00,,,0.01,WUHU216HW,2013-07-30 18:10:00,
2013-07-30 13:15:00,72.7,39.6,30.01,North,10,1.2,3.1,30,0.00,,,0.01,WUHU216HW,2013-07-30 18:15:00,
2013-07-30 13:20:00,73.1,38.9,30.01,NE,45,2.0,2.9,29,0.00,,,0.01,WUHU216HW,2013-07-30 18:20:00,
2013-07-30 13:25:00,73.3,38.0,30.01,North,9,1.4,2.7,28,0.00,,,0.01,WUHU216HW,2013-07-30 18:25:00,
2013-07-30 13:30:00,73.6,41.0,30.00,NE,53,1.9,4.3,31,0.00,,,0.01,WUHU216HW,2013-07-30 18:30:00,
2013-07-30 13:35:00,75.1,41.6,30.01,ENE,68,1.1,4.3,30,0.00,,,0.01,WUHU216HW,2013-07-30 18:35:00,
2013-07-30 13:40:00,75.2,44.0,30.01,NE,44,1.5,4.0,33,0.00,,,0.01,WUHU216HW,2013-07-30 18:40:00,
2013-07-30 13:45:00,75.2,47.8,30.01,ENE,68,1.3,4.0,38,0.00,,,0.01,WUHU216HW,2013-07-30 18:45:00,
2013-07-30 13:50:00,74.9,45.2,30.01,NNE,23,3.8,3.8,35,0.00,,,0.01,WUHU216HW,2013-07-30 18:50:00,
2013-07-30 13:55:00,74.3,44.7,30.01,ENE,59,1.4,3.8,35,0.00,,,0.01,WUHU216HW,2013-07-30 18:55:00,
2013-07-30 14:00:00,74.5,44.1,30.01,NNE,23,0.9,3.8,34,0.00,,,0.01,WUHU216HW,2013-07-30 19:00:00,
2013-07-30 14:05:00,75.1,47.6,30.01,WSW,256,1.4,2.7,38,0.00,,,0.01,WUHU216HW,2013-07-30 19:05:00,
2013-07-30 14:10:00,75.8,47.5,30.01,North,5,1.1,2.5,37,0.00,,,0.01,WUHU216HW,2013-07-30 19:10:00,
2013-07-30 14:15:00,75.4,48.7,30.00,ENE,60,1.7,3.1,39,0.00,,,0.01,WUHU216HW,2013-07-30 19:15:00,
2013-07-30 14:20:00,75.6,48.2,30.00,East,90,2.9,3.1,38,0.00,,,0.01,WUHU216HW,2013-07-30 19:20:00,
2013-07-30 14:25:00,75.8,50.4,30.00,NNE,23,0.9,2.9,41,0.00,,,0.01,WUHU216HW,2013-07-30 19:25:00,
2013-07-30 14:30:00,76.1,50.8,30.01,ENE,62,2.2,3.6,41,0.00,,,0.01,WUHU216HW,2013-07-30 19:30:00,
2013-07-30 14:35:00,75.6,48.9,30.01,NE,45,1.8,3.8,39,0.00,,,0.01,WUHU216HW,2013-07-30 19:35:00,
2013-07-30 14:40:00,75.4,48.7,30.00,NNE,13,1.8,3.8,39,0.00,,,0.01,WUHU216HW,2013-07-30 19:40:00,
2013-07-30 14:45:00,75.2,47.8,30.00,NNE,23,1.6,2.5,38,0.00,,,0.01,WUHU216HW,2013-07-30 19:45:00,
2013-07-30 14:50:00,75.6,47.3,30.00,ENE,68,2.2,2.2,37,0.00,,,0.01,WUHU216HW,2013-07-30 19:50:00,
2013-07-30 14:55:00,75.2,47.8,30.01,NE,45,2.2,4.9,38,0.00,,,0.01,WUHU216HW,2013-07-30 19:55:00,
2013-07-30 15:00:00,75.2,45.5,30.00,NE,45,1.8,4.9,35,0.00,,,0.01,WUHU216HW,2013-07-30 20:00:00,
2013-07-30 15:05:00,75.6,48.9,30.00,NNE,28,2.4,3.1,39,0.00,,,0.01,WUHU216HW,2013-07-30 20:05:00,
2013-07-30 15:10:00,75.2,47.8,30.00,NE,45,2.5,4.0,38,0.00,,,0.01,WUHU216HW,2013-07-30 20:10:00,
2013-07-30 15:15:00,74.9,46.7,30.00,NE,38,2.0,4.0,37,0.00,,,0.01,WUHU216HW,2013-07-30 20:15:00,
2013-07-30 15:20:00,75.1,46.9,30.00,East,90,1.8,3.4,37,0.00,,,0.01,WUHU216HW,2013-07-30 20:20:00,
2013-07-30 15:25:00,75.2,47.8,30.00,ENE,66,2.0,3.4,38,0.00,,,0.01,WUHU216HW,2013-07-30 20:25:00,
2013-07-30 15:30:00,75.4,48.7,30.00,North,6,1.7,3.4,39,0.00,,,0.01,WUHU216HW,2013-07-30 20:30:00,
2013-07-30 15:35:00,75.4,49.5,30.00,WNW,293,1.6,3.1,40,0.00,,,0.01,WUHU216HW,2013-07-30 20:35:00,
2013-07-30 15:40:00,75.4,48.7,30.00,NE,45,2.2,2.2,39,0.00,,,0.01,WUHU216HW,2013-07-30 20:40:00,
2013-07-30 15:45:00,75.1,48.4,30.00,NNE,23,1.6,4.9,39,0.00,,,0.01,WUHU216HW,2013-07-30 20:45:00,
2013-07-30 15:50:00,74.9,46.7,30.00,North,0,2.2,4.9,37,0.00,,,0.01,WUHU216HW,2013-07-30 20:50:00,
2013-07-30 15:55:00,74.9,46.7,30.00,NE,36,1.2,3.4,37,0.00,,,0.01,WUHU216HW,2013-07-30 20:55:00,
2013-07-30 16:00:00,74.9,46.7,30.01,NE,43,1.2,3.4,37,0.00,,,0.01,WUHU216HW,2013-07-30 21:00:00,
2013-07-30 16:05:00,75.1,45.4,30.00,ENE,68,1.3,3.4,35,0.00,,,0.01,WUHU216HW,2013-07-30 21:05:00,
2013-07-30 16:10:00,75.2,48.6,30.00,NNE,23,1.8,3.1,39,0.00,,,0.01,WUHU216HW,2013-07-30 21:10:00,
2013-07-30 16:15:00,75.4,47.3,30.00,NNE,23,1.6,3.1,37,0.00,,,0.01,WUHU216HW,2013-07-30 21:15:00,
2013-07-30 16:20:00,75.2,47.1,30.00,NNE,21,1.6,4.5,37,0.00,,,0.01,WUHU216HW,2013-07-30 21:20:00,
2013-07-30 16:25:00,75.1,46.9,30.00,NE,38,2.6,4.5,37,0.00,,,0.01,WUHU216HW,2013-07-30 21:25:00,
2013-07-30 16:30:00,74.9,46.7,30.00,NE,39,2.5,3.6,37,0.00,,,0.01,WUHU216HW,2013-07-30 21:30:00,
2013-07-30 16:35:00,75.1,46.9,30.00,ENE,65,2.3,3.6,37,0.00,,,0.01,WUHU216HW,2013-07-30 21:35:00,
2013-07-30 16:40:00,74.9,47.5,30.00,NE,45,1.8,3.4,38,0.00,,,0.01,WUHU216HW,2013-07-30 21:40:00,
2013-07-30 16:45:00,74.9,46.7,30.00,ENE,66,2.1,3.4,37,0.00,,,0.01,WUHU216HW,2013-07-30 21:45:00,
2013-07-30 16:50:00,75.1,47.6,30.00,East,90,2.5,3.4,38,0.00,,,0.01,WUHU216HW,2013-07-30 21:50:00,
2013-07-30 16:55:00,75.2,47.1,30.00,East,90,1.6,3.4,37,0.00,,,0.01,WUHU216HW,2013-07-30 21:55:00,
2013-07-30 17:00:00,75.2,48.6,30.00,NE,45,1.3,2.5,39,0.00,,,0.01,WUHU216HW,2013-07-30 22:00:00,
2013-07-30 17:05:00,75.2,49.3,30.00,ENE,68,2.6,3.6,40,0.00,,,0.01,WUHU216HW,2013-07-30 22:05:00,
2013-07-30 17:10:00,75.2,48.6,30.00,ENE,68,3.4,3.6,39,0.00,,,0.01,WUHU216HW,2013-07-30 22:10:00,
2013-07-30 17:15:00,74.9,47.5,30.00,NNE,23,1.6,4.0,38,0.00,,,0.01,WUHU216HW,2013-07-30 22:15:00,
2013-07-30 17:20:00,74.5,46.5,30.00,NNE,23,1.9,4.0,37,0.00,,,0.01,WUHU216HW,2013-07-30 22:20:00,
2013-07-30 17:25:00,74.5,46.5,30.00,NE,42,2.3,3.8,37,0.00,,,0.01,WUHU216HW,2013-07-30 22:25:00,
2013-07-30 17:30:00,74.7,45.1,30.00,ENE,68,1.8,3.8,35,0.00,,,0.01,WUHU216HW,2013-07-30 22:30:00,
2013-07-30 17:35:00,75.1,47.6,30.00,NE,40,1.8,2.7,38,0.00,,,0.01,WUHU216HW,2013-07-30 22:35:00,
2013-07-30 17:40:00,75.2,47.1,29.99,ENE,68,1.8,2.7,37,0.00,,,0.01,WUHU216HW,2013-07-30 22:40:00,
2013-07-30 17:45:00,75.1,49.1,29.99,NE,45,1.3,2.9,40,0.00,,,0.01,WUHU216HW,2013-07-30 22:45:00,
2013-07-30 17:50:00,75.1,47.6,29.99,East,84,2.2,2.9,38,0.00,,,0.01,WUHU216HW,2013-07-30 22:50:00,
2013-07-30 17:55:00,74.9,47.5,29.99,North,8,1.0,2.9,38,0.00,,,0.01,WUHU216HW,2013-07-30 22:55:00,
2013-07-30 18:00:00,74.9,47.5,29.99,ENE,68,1.6,3.4,38,0.00,,,0.01,WUHU216HW,2013-07-30 23:00:00,
2013-07-30 18:05:00,74.9,48.2,29.99,NNE,23,2.2,3.4,39,0.00,,,0.01,WUHU216HW,2013-07-30 23:05:00,
2013-07-30 18:10:00,74.9,47.5,29.99,NNE,23,1.6,2.5,38,0.00,,,0.01,WUHU216HW,2013-07-30 23:10:00,
2013-07-30 18:15:00,74.7,47.4,29.99,NNE,23,1.1,2.2,38,0.00,,,0.01,WUHU216HW,2013-07-30 23:15:00,
2013-07-30 18:20:00,74.9,49.0,29.99,NE,45,2.7,4.0,40,0.00,,,0.01,WUHU216HW,2013-07-30 23:20:00,
2013-07-30 18:25:00,74.9,48.2,29.98,East,90,2.3,4.0,39,0.00,,,0.01,WUHU216HW,2013-07-30 23:25:00,
2013-07-30 18:30:00,74.7,47.4,29.98,East,90,2.0,3.4,38,0.00,,,0.01,WUHU216HW,2013-07-30 23:30:00,
2013-07-30 18:35:00,74.7,46.5,29.98,ENE,68,2.2,3.4,37,0.00,,,0.01,WUHU216HW,2013-07-30 23:35:00,
2013-07-30 18:40:00,74.5,46.5,29.99,ENE,68,1.8,3.1,37,0.00,,,0.01,WUHU216HW,2013-07-30 23:40:00,
2013-07-30 18:45:00,74.3,45.5,29.99,ENE,64,2.2,3.4,36,0.00,,,0.01,WUHU216HW,2013-07-30 23:45:00,
2013-07-30 18:50:00,74.2,43.8,29.99,NE,56,2.2,3.4,34,0.00,,,0.01,WUHU216HW,2013-07-30 23:50:00,
2013-07-30 18:55:00,73.8,43.5,29.99,NE,54,2.6,3.4,34,0.00,,,0.01,WUHU216HW,2013-07-30 23:55:00,
2013-07-30 19:00:00,73.6,41.9,29.99,ENE,68,0.9,2.7,32,0.00,,,0.01,WUHU216HW,2013-07-31 00:00:00,
2013-07-30 19:05:00,73.6,41.9,29.99,ENE,68,0.9,0.9,32,0.00,,,0.01,WUHU216HW,2013-07-31 00:05:00,
2013-07-30 20:00:00,72.5,39.4,30.03,North,0,2.5,2.5,30,0.00,,,0.01,WUHU216HW,2013-07-31 01:00:00,
2013-07-30 20:05:00,72.5,39.4,30.03,North,0,2.5,2.5,30,0.00,,,0.01,WUHU216HW,2013-07-31 01:05:00,
2013-07-30 21:00:00,72.2,37.1,30.04,North,0,0.0,0.0,28,0.00,,,0.01,WUHU216HW,2013-07-31 02:00:00,
2013-07-30 21:05:00,72.2,36.1,30.04,North,0,0.8,1.1,27,0.00,,,0.01,WUHU216HW,2013-07-31 02:05:00,
2013-07-30 21:10:00,72.0,34.9,30.04,North,0,0.7,1.1,26,0.00,,,0.01,WUHU216HW,2013-07-31 02:10:00,
2013-07-30 22:00:00,71.6,31.5,30.05,NNE,23,0.0,0.0,23,0.00,,,0.01,WUHU216HW,2013-07-31 03:00:00,
2013-07-30 22:05:00,71.6,31.5,30.05,NNE,23,0.0,0.0,23,0.00,,,0.01,WUHU216HW,2013-07-31 03:05:00,
2013-07-30 23:00:00,70.0,24.0,30.04,NNE,23,0.0,0.0,18,0.00,,,0.01,WUHU216HW,2013-07-31 04:00:00,
2013-07-30 23:01:00,70.0,24.0,30.04,NNE,23,0.0,0.0,18,0.00,,,0.01,WUHU216HW,2013-07-31 04:01:00,
2013-07-30 23:06:00,70.0,24.0,30.04,NNE,23,0.0,0.0,18,0.00,,,0.01,WUHU216HW,2013-07-31 04:06:00,